Flight Track Log - Related Links

Times and Time Zones

All times are in EDT time to prevent confusion due to time zone crossing. See the N73DB flight status page for this flight to view local times or setup timezone preferences in your user account.

Time Position Orientation Groundspeed Altitude Reporting Facility
EDT Latitude Longitude Course Direction KTS MPH feet Rate Location/Type
Wed 09:37:15 PM 35.8803 -76.6431 265° West 362 417 4,000  Level Washington Center
Wed 09:38:15 PM 35.8236 -76.6681 200° South 285 328 5,100 1,322 Climbing Washington Center
Wed 09:39:13 PM 35.7547 -76.6797 188° South 260 299 6,600 1,765 Climbing Washington Center
Wed 09:40:14 PM 35.6856 -76.6967 191° South 255 293 8,600 1,983 Climbing Washington Center
Wed 09:41:14 PM 35.6228 -76.7267 201° Southwest 255 293 10,600 1,934 Climbing Washington Center
Wed 09:42:00 PM 35.9974 -77.1006 265° West  Level FlightAware Approximate
Wed 09:42:15 PM 35.5619 -76.7639 206° Southwest 250 288 12,500  Level Washington Center
Wed 09:43:15 PM 35.5094 -76.8092 215° Southwest 243 280 14,600 1,932 Climbing Washington Center
Wed 09:44:13 PM 35.4586 -76.8619 220° Southwest 238 274 16,300 1,664 Climbing Washington Center
Wed 09:45:14 PM 35.4122 -76.9097 220° Southwest 238 274 17,900 1,574 Climbing Washington Center
Wed 09:46:15 PM 35.3678 -76.9650 225° Southwest 233 268 19,500 1,450 Climbing Washington Center
Wed 09:47:14 PM 35.3275 -77.0228 229° Southwest 233 268 20,800 1,150 Climbing Washington Center
Wed 09:48:15 PM 35.2933 -77.0986 241° Southwest 238 274 21,800 605 Climbing Washington Center
Wed 09:49:13 PM 35.2586 -77.1819 243° Southwest 259 298 22,000 101 Climbing Washington Center
Wed 09:50:14 PM 35.2219 -77.2778 245° Southwest 286 329 22,000  Level Washington Center
Wed 09:51:15 PM 35.1808 -77.3786 244° Southwest 315 362 22,000  Level Washington Center
Wed 09:52:15 PM 35.1397 -77.4792 243° Southwest 331 381 22,000  Level Washington Center
Wed 09:53:13 PM 35.0983 -77.5822 244° Southwest 336 387 22,000  Level Washington Center
Wed 09:54:14 PM 35.0550 -77.6828 242° Southwest 336 387 22,000  Level Washington Center
Wed 09:55:14 PM 35.0156 -77.7831 244° Southwest 336 387 22,000  Level Washington Center
Wed 09:56:14 PM 34.9761 -77.8808 244° Southwest 336 387 22,000  Level Washington Center
Wed 09:57:15 PM 34.9367 -77.9836 245° Southwest 336 387 22,000  Level Washington Center
Wed 09:58:13 PM 34.8950 -78.0811 243° Southwest 336 387 22,000  Level Washington Center
Wed 09:59:14 PM 34.8531 -78.1836 244° Southwest 336 387 22,000  Level Washington Center
Wed 10:00:14 PM 34.8114 -78.2811 243° Southwest 336 387 22,000  Level Washington Center
Wed 10:01:15 PM 34.7692 -78.3933 245° Southwest 341 392 22,000  Level Washington Center
Wed 10:03:17 PM 34.6847 -78.5828 242° Southwest 332 382 22,000  Level Jacksonville Center
Wed 10:04:17 PM 34.6444 -78.6833 244° Southwest 327 376 22,000  Level Jacksonville Center
Wed 10:05:17 PM 34.6039 -78.7811 243° Southwest 327 376 22,000  Level Jacksonville Center
Wed 10:06:18 PM 34.5631 -78.8764 243° Southwest 327 376 22,000  Level Jacksonville Center
Wed 10:07:17 PM 34.5203 -78.9742 242° Southwest 327 376 22,000  Level Jacksonville Center
Wed 10:08:17 PM 34.4817 -79.0742 245° Southwest 332 382 22,000  Level Jacksonville Center
Wed 10:09:17 PM 34.4389 -79.1742 243° Southwest 332 382 22,000  Level Jacksonville Center
Wed 10:10:17 PM 34.4083 -79.2736 250° West 325 374 22,000  Level Jacksonville Center
Wed 10:11:17 PM 34.4342 -79.3783 287° West 310 357 22,000  Level Jacksonville Center
Wed 10:12:17 PM 34.4578 -79.4781 286° West 310 357 22,000  Level Jacksonville Center
Wed 10:13:17 PM 34.4836 -79.5803 287° West 316 364 22,000 -700 Level Jacksonville Center
Wed 10:14:17 PM 34.5092 -79.6900 286° West 316 364 20,600 -1,500 Descending Jacksonville Center
Wed 10:15:17 PM 34.5350 -79.8000 286° West 327 376 19,000 -1,650 Descending Jacksonville Center
Wed 10:16:17 PM 34.5606 -79.9100 286° West 340 391 17,300 -1,600 Descending Jacksonville Center
Wed 10:17:17 PM 34.5903 -80.0200 288° West 340 391 15,800 -1,535 Descending Jacksonville Center
Wed 10:19:09 PM 34.6389 -80.2317 286° West 333 383 12,900 -1,492 Descending Atlanta Center
Wed 10:20:22 PM 34.6964 -80.3350 304° West 295 339 11,200 -991 Descending Atlanta Center
Wed 10:20:58 PM 34.7289 -80.3767 314° West 287 330 11,100 -699 Descending Atlanta Center
Wed 10:22:05 PM 34.7894 -80.4525 314° West 289 333 10,000 -984 Descending Atlanta Center
Wed 10:23:00 PM 34.8417 -80.5186 314° West 285 328 9,100 -446 Descending Atlanta Center
Wed 10:24:06 PM 34.9000 -80.5894 315° West 273 314 9,100  Level Atlanta Center
Wed 10:24:55 PM 34.9433 -80.6458 313° West 278 320 9,100  Level Atlanta Center
Wed 10:26:20 PM 35.0231 -80.7417 315° West 288 331 9,100  Level Atlanta Center
Wed 10:27:03 PM 35.0597 -80.7883 314° West 282 325 9,100 -124 Level Atlanta Center
Wed 10:27:57 PM 35.1250 -80.8111 344° North 275 316 8,900 -1,263 Descending Atlanta Center
Wed 10:29:16 PM 35.2297 -80.8250 354° North 269 310 6,300 -1,975 Descending Atlanta Center

Login

Don't have an account? Register now (free) for customized features, flight alerts, and more!